KIDA/IDA METAR and TAF weather

Enter ICAO airport designator
Station Type Date Time Source
KIDA METAR 2019/08/22 04:53 UTC NOAA

KIDA 220453Z AUTO 00000KT 10SM CLR 16/09 A2990 RMK AO2 SLP084 T01560094 TSNO


Station Type Date Time Source
KIDA Decoded METAR 2019/08/22 04:53 UTC NOAA

Station name not available
Aug 22, 2019 - 12:53 AM EDT / 2019.08.22 0453 UTC
Wind: Calm:0
Visibility: 10 mile(s):0
Sky conditions: clear
Temperature: 60.1 F (15.6 C)
Dew Point: 48.9 F (9.4 C)
Relative Humidity: 66%
Pressure (altimeter): 29.9 in. Hg (1012 hPa)
ob: KIDA 220453Z AUTO 00000KT 10SM CLR 16/09 A2990 RMK AO2 SLP084 T01560094 TSNO
cycle: 5

Station Type Date Time Source
KIDA TAF 2019/08/22 06:22 UTC NOAA

TAF KIDA 220520Z 2206/2306 19004KT P6SM FEW180
FM221000 VRB04KT P6SM SCT130 WS010/19030KT
FM221300 19012KT P6SM SCT150
FM221800 21015G25KT P6SM SCT150

Example: see airport list